25. Juni 2022

Uhrzeit Code Wetter Temp. Sichtweite Wolkendecke Wind METAR/SPECI
3:30 am
V
61 °F 6¼ mi+ - 180° 180° 2 kt METAR LFMK 250130Z AUTO 18002KT CAVOK 16/15 Q1013
3:00 am
V
61 °F 6¼ mi+ - Var 000° 0 kt METAR LFMK 250100Z AUTO 00000KT CAVOK 16/15 Q1013
2:30 am
V
61 °F 6¼ mi+ - Var 000° 0 kt METAR LFMK 250030Z AUTO 00000KT CAVOK 16/15 Q1014
2:00 am
V
63 °F 6¼ mi+ - 280° 280° 1 kt METAR LFMK 250000Z AUTO 28001KT CAVOK 17/15 Q1014
1:30 am
V
63 °F 6¼ mi+ - Var Var 1 kt METAR LFMK 242330Z AUTO VRB01KT CAVOK 17/16 Q1014
1:00 am
V
64 °F 6¼ mi+ - Var Var 2 kt METAR LFMK 242300Z AUTO VRB02KT CAVOK 18/16 Q1014
12:30 am
V
66 °F 6¼ mi+ - Var Var 2 kt METAR LFMK 242230Z AUTO VRB02KT CAVOK 19/16 Q1014
12:00 am
V
66 °F 6¼ mi+ 8.400 ft 320° 320° 3 kt METAR LFMK 242200Z AUTO 32003KT 9999 OVC084 19/16 Q1014

24. Juni 2022

Uhrzeit Code Wetter Temp. Sichtweite Wolkendecke Wind METAR/SPECI
11:30 pm
V
68 °F 6¼ mi+ - Var Var 2 kt METAR LFMK 242130Z AUTO VRB02KT CAVOK 20/16 Q1014
11:00 pm
V
70 °F 6¼ mi+ - Var Var 3 kt METAR LFMK 242100Z AUTO VRB03KT CAVOK 21/16 Q1014
10:30 pm
V
70 °F 6¼ mi+ 8.400 ft Var Var 3 kt METAR LFMK 242030Z AUTO VRB03KT 9999 OVC084 21/16 Q1014
10:00 pm
V
70 °F 6¼ mi+ 8.400 ft Var Var 3 kt METAR LFMK 242000Z AUTO VRB03KT 9999 OVC084 21/16 Q1014
9:30 pm
V
72 °F 6¼ mi+ 7.600 ft 220° 220° 3 kt METAR LFMK 241930Z AUTO 22003KT 160V260 9999 OVC076 22/15 Q1013
9:00 pm
V
73 °F 6¼ mi+ 7.200 ft Var Var 3 kt METAR LFMK 241900Z AUTO VRB03KT 9999 BKN072 OVC082 23/16 Q1013
8:30 pm
V
75 °F 6¼ mi+ 7.200 ft Var Var 3 kt METAR LFMK 241830Z AUTO VRB03KT 9999 OVC072 24/15 Q1013
8:00 pm
V
75 °F 6¼ mi+ 7.400 ft 260° 260° 3 kt METAR LFMK 241800Z AUTO 26003KT 230V290 9999 OVC074 24/14 Q1013 NOSIG
7:30 pm
V
75 °F 6¼ mi+ 7.200 ft 250° 250° 4 kt METAR LFMK 241730Z AUTO 25004KT 230V290 9999 OVC072 24/14 Q1013 NOSIG
7:00 pm
V
77 °F 6¼ mi+ 7.000 ft 270° 270° 4 kt METAR LFMK 241700Z AUTO 27004KT 220V310 9999 OVC070 25/14 Q1013 NOSIG
6:30 pm
V
77 °F 6¼ mi+ 7.200 ft 270° 270° 5 kt METAR LFMK 241630Z AUTO 27005KT 210V300 9999 BKN072 25/14 Q1013 NOSIG
6:00 pm
V
79 °F 6¼ mi+ 7.000 ft 250° 250° 4 kt METAR LFMK 241600Z AUTO 25004KT 170V300 9999 SCT060 BKN070 26/15 Q1013 NOSIG
5:30 pm
V
77 °F 6¼ mi+ 6.600 ft 230° 230° 4 kt METAR LFMK 241530Z AUTO 23004KT 140V280 9999 FEW048 BKN066 25/15 Q1013 NOSIG
5:00 pm
V
77 °F 6¼ mi+ 6.000 ft 270° 270° 6 kt METAR LFMK 241500Z AUTO 27006KT 200V320 9999 SCT047 BKN060 25/14 Q1013 NOSIG
4:30 pm
V
75 °F 6¼ mi+ 6.000 ft 280° 280° 5 kt METAR LFMK 241430Z AUTO 28005KT 220V330 9999 FEW046 BKN060 24/14 Q1014 NOSIG
4:00 pm
V
75 °F 6¼ mi+ 5.800 ft 280° 280° 7 kt METAR LFMK 241400Z AUTO 28007KT 230V320 9999 FEW049 BKN058 24/15 Q1014 NOSIG
3:30 pm
V
75 °F 6¼ mi+ 5.400 ft 270° 270° 6 kt METAR LFMK 241330Z AUTO 27006KT 230V300 9999 SCT044 OVC054 24/14 Q1014 NOSIG
3:00 pm
V
75 °F 6¼ mi+ 5.000 ft 290° 290° 10 kt METAR LFMK 241300Z AUTO 29010KT 260V320 9999 BKN050 24/14 Q1014 NOSIG
2:30 pm
V
75 °F 6¼ mi+ 4.700 ft 270° 270° 10 kt METAR LFMK 241230Z AUTO 27010KT 230V300 9999 FEW037 BKN047 24/15 Q1014 NOSIG
2:00 pm
V
73 °F 6¼ mi+ 3.500 ft 290° 290° 11 kt METAR LFMK 241200Z AUTO 29011KT 250V330 9999 BKN035 BKN043 23/15 Q1014 NOSIG
1:30 pm
V
73 °F 6¼ mi+ - 280° 280° 12 kt METAR LFMK 241130Z AUTO 28012KT 240V310 9999 FEW032 23/15 Q1014 NOSIG
1:00 pm
V
73 °F 6¼ mi+ - 290° 290° 12 kt METAR LFMK 241100Z AUTO 29012KT 9999 FEW031 23/15 Q1014 TEMPO SCT025TCU
12:30 pm
V
72 °F 6¼ mi+ - 280° 280° 11 kt METAR LFMK 241030Z AUTO 28011KT 250V320 9999 FEW029 22/15 Q1014 TEMPO SCT025TCU
12:00 pm
V
68 °F 6¼ mi+ - 280° 280° 7 kt METAR LFMK 241000Z AUTO 28007KT 240V310 9999 SCT024 SCT064 20/15 Q1015 TEMPO SCT025TCU
11:30 am
V
66 °F 6¼ mi+ 6.600 ft 260° 260° 8 kt METAR LFMK 240930Z AUTO 26008KT 230V290 9999 BKN066 19/14 Q1015 TEMPO SCT025TCU
11:00 am
V
66 °F 6¼ mi+ 6.200 ft 270° 270° 9 kt METAR LFMK 240900Z AUTO 27009KT 230V300 9999 BKN062 BKN076 BKN092 19/14 Q1015 NOSIG
10:30 am
V
64 °F 6¼ mi+ 6.000 ft 250° 250° 7 kt METAR LFMK 240830Z AUTO 25007KT 210V310 9999 OVC060/// ///TCU 18/13 Q1015 BECMG SCT040
10:00 am
V
64 °F 6¼ mi+ 5.400 ft 260° 260° 6 kt METAR LFMK 240800Z AUTO 26006KT 210V290 9999 SCT047/// OVC054/// ///CB 18/13 Q1015 BECMG SCT040
9:30 am
V
64 °F 6¼ mi+ 4.200 ft 300° 300° 9 kt METAR LFMK 240730Z AUTO 30009KT 9999 OVC042/// ///CB 18/13 Q1015 BECMG SCT040
9:00 am
V
64 °F 6¼ mi+ 3.600 ft 320° 320° 10 kt METAR LFMK 240700Z AUTO 32010KT 300V360 9999 BKN036/// BKN046/// OVC066/// //////CB 18/14 Q1014 TEMPO BKN014 SCT020TCU
8:30 am
V
64 °F 6¼ mi+ 4.300 ft 280° 280° 13 kt METAR LFMK 240630Z AUTO 28013KT 9999 BKN043/// BKN049/// OVC062/// //////CB 18/16 Q1014 TEMPO BKN014 SCT020TCU
8:00 am
V
66 °F 6¼ mi+ 6.200 ft 260° 260° 9 kt METAR LFMK 240600Z AUTO 26009KT 9999 FEW041 OVC062 19/17 Q1013 TEMPO BKN014 SCT020TCU
7:30 am
V
64 °F 6¼ mi+ 6.400 ft 270° 270° 7 kt METAR LFMK 240530Z AUTO 27007KT 9999 FEW054 BKN064 OVC130 18/17 Q1013 TEMPO BKN014 SCT020TCU
7:00 am
V
64 °F 6¼ mi+ 5.000 ft 270° 270° 8 kt METAR LFMK 240500Z AUTO 27008KT 9999 FEW040/// BKN050/// BKN064/// //////CB 18/17 Q1013 TEMPO BKN014 SCT020TCU
6:30 am
V
64 °F 6¼ mi+ 5.000 ft 280° 280° 8 kt METAR LFMK 240430Z AUTO 28008KT 240V310 9999 OVC050/// ///TCU 18/17 Q1012 TEMPO BKN014 SCT020TCU
6:00 am
V
64 °F 6¼ mi+ 5.200 ft 270° 270° 8 kt METAR LFMK 240400Z AUTO 27008KT 9999 OVC052 18/17 Q1013 TEMPO BKN014 SCT020TCU
5:30 am
V
64 °F 6¼ mi+ 5.000 ft 260° 260° 6 kt METAR LFMK 240330Z AUTO 26006KT 230V300 9999 BKN050 18/17 Q1012 TEMPO BKN014 SCT020TCU
5:00 am
V
64 °F 6¼ mi+ 15.000 ft 250° 250° 6 kt METAR LFMK 240300Z AUTO 25006KT 230V290 9999 SCT054/// BKN150/// //////CB 18/17 Q1012 TEMPO BKN014 SCT020TCU
4:30 am
V
64 °F 6¼ mi+ 5.600 ft 220° 220° 4 kt METAR LFMK 240230Z AUTO 22004KT 160V260 9999 FEW022/// BKN056/// OVC120/// //////TCU 18/17 Q1013
4:00 am
I
64 °F 2⅞ mi 10.000 ft 240° 240° 4 kt METAR LFMK 240200Z AUTO 24004KT 210V290 9999 4600 FEW056/// BKN100/// OVC120/// //////CB 18/17 Q1013
3:30 am
V
64 °F 6¼ mi+ 10.000 ft 270° 270° 2 kt METAR LFMK 240130Z AUTO 27002KT 9999 SCT054 OVC100 18/17 Q1013
3:00 am
V
64 °F 6¼ mi+ - 240° 240° 4 kt METAR LFMK 240100Z AUTO 24004KT 220V280 CAVOK 18/17 Q1013
2:30 am
V
64 °F 6¼ mi+ - 250° 250° 4 kt METAR LFMK 240030Z AUTO 25004KT 220V280 CAVOK 18/17 Q1013
2:00 am
V
64 °F 6¼ mi+ - 250° 250° 7 kt METAR LFMK 240000Z AUTO 25007KT CAVOK 18/17 Q1013
1:30 am
V
64 °F 6¼ mi+ - 260° 260° 6 kt METAR LFMK 232330Z AUTO 26006KT 230V290 CAVOK 18/17 Q1014
1:00 am
V
64 °F 6¼ mi+ - 250° 250° 7 kt METAR LFMK 232300Z AUTO 25007KT 220V280 9999 FEW034 18/17 Q1014
12:30 am
V
64 °F 6¼ mi+ - 260° 260° 7 kt METAR LFMK 232230Z AUTO 26007KT 230V290 9999 FEW060 18/17 Q1014
12:00 am
V
64 °F 6¼ mi+ - 260° 260° 6 kt METAR LFMK 232200Z AUTO 26006KT 220V290 9999 FEW017 18/17 Q1014

23. Juni 2022

Uhrzeit Code Wetter Temp. Sichtweite Wolkendecke Wind METAR/SPECI
11:30 pm
V
64 °F 6¼ mi+ 8.600 ft 250° 250° 8 kt METAR LFMK 232130Z AUTO 25008KT 230V290 9999 FEW048/// BKN086/// //////CB 18/17 Q1014
11:00 pm
V
64 °F 6¼ mi+ 8.200 ft 270° 270° 10 kt METAR LFMK 232100Z AUTO 27010KT 230V300 9999 OVC082/// ///CB 18/17 Q1014
10:30 pm
I
66 °F 2⅛ mi 4.300 ft 270° 270° 12 - 24 kt METAR LFMK 232030Z AUTO 27012G24KT 3500 R09/1000U TSRA BR SCT010/// SCT033/// BKN043/// //////CB 19/18 Q1013
10:00 pm
V
70 °F 6¼ mi+ 5.000 ft Var Var 3 kt METAR LFMK 232000Z AUTO VRB03KT 9999 TS SCT044/// BKN050/// OVC082/// //////CB 21/19 Q1012
9:30 pm
V
68 °F 6¼ mi+ - 280° 280° 4 kt METAR LFMK 231930Z AUTO 28004KT 250V310 9999 FEW052 SCT082 20/19 Q1012
9:00 pm
V
70 °F 6¼ mi+ - Var 000° 0 kt METAR LFMK 231900Z AUTO 00000KT 9999 FEW068/// SCT130/// //////CB 21/19 Q1011
8:30 pm
V
70 °F 6¼ mi+ 7.200 ft Var Var 2 kt METAR LFMK 231830Z AUTO VRB02KT 9999 BKN072/// BKN098/// //////CB 21/19 Q1011
8:00 pm
V
70 °F 6¼ mi+ 7.200 ft 110° 110° 4 kt METAR LFMK 231800Z AUTO 11004KT 070V190 9999 -RA FEW024/// BKN072/// OVC092/// ///CB 21/19 Q1011 TEMPO VRB20G40KT 2000 TSRA
7:30 pm
V
70 °F 6¼ mi+ 6.800 ft 070° 070° 8 kt METAR LFMK 231730Z AUTO 07008KT 9999 TS SCT054/// BKN068/// BKN084/// //////CB 21/18 Q1010 TEMPO VRB20G40KT 2000 TSRA
7:00 pm
V
75 °F 6¼ mi+ 4.800 ft 030° 030° 7 kt METAR LFMK 231700Z AUTO 03007KT 350V080 9999 VCTS BKN048/// BKN064/// //////CB 24/19 Q1010 TEMPO VRB20G40KT 2000 TSRA
6:30 pm
V
73 °F 6¼ mi+ 5.600 ft 020° 020° 10 kt METAR LFMK 231630Z AUTO 02010KT 350V060 9999 TS FEW005/// SCT045/// BKN056/// //////CB 23/20 Q1010 TEMPO VRB20G40KT 2000 +TSRA
6:00 pm
V
75 °F 6¼ mi+ 4.700 ft 310° 310° 5 kt METAR LFMK 231600Z AUTO 31005KT 240V010 9999 -TSRA BKN047/// BKN110/// BKN140/// ///CB 24/20 Q1009 TEMPO VRB15G25KT 3000 TSRA NSC
5:30 pm
V
82 °F 6¼ mi+ - 100° 100° 6 kt METAR LFMK 231530Z AUTO 10006KT 050V160 9999 //////CB 28/17 Q1009 TEMPO VRB15G25KT 3000 TSRA NSC
5:00 pm
V
86 °F 6¼ mi+ - 080° 080° 7 kt METAR LFMK 231500Z AUTO 08007KT 030V160 CAVOK 30/18 Q1009 BECMG 27010KT
4:30 pm
V
84 °F 6¼ mi+ - 080° 080° 8 kt METAR LFMK 231430Z AUTO 08008KT 040V120 CAVOK 29/17 Q1009 TEMPO VRB15G25KT 3000 TSRA SCT025 BKN040CB
4:00 pm
V
84 °F 6¼ mi+ - 070° 070° 9 kt METAR LFMK 231400Z AUTO 07009KT 040V100 CAVOK 29/18 Q1009 TEMPO VRB15G25KT 3000 TSRA SCT025 BKN040CB
3:30 pm
V
82 °F 6¼ mi+ - 070° 070° 10 kt METAR LFMK 231330Z AUTO 07010KT 020V100 CAVOK 28/17 Q1009 TEMPO VRB15G25KT 3000 TSRA SCT025 BKN040CB
3:00 pm
V
84 °F 6¼ mi+ - 020° 020° 8 kt METAR LFMK 231300Z AUTO 02008KT 340V060 9999 FEW044/// ///CB 29/17 Q1009 TEMPO VRB15G25KT 3000 TSRA
2:30 pm
V
82 °F 6¼ mi+ 4.600 ft 320° 320° 7 kt METAR LFMK 231230Z AUTO 32007KT 280V010 9999 FEW037/// BKN046/// ///CB 28/17 Q1010 TEMPO VRB15G25KT 3000 TSRA
2:00 pm
V
81 °F 6¼ mi+ - 300° 300° 11 kt METAR LFMK 231200Z AUTO 30011KT 270V340 9999 TS SCT034/// SCT040/// //////CB 27/19 Q1009 BECMG 09010KT NSW
1:30 pm
V
81 °F 6¼ mi+ 10.000 ft Var Var 8 kt METAR LFMK 231130Z AUTO VRB08KT 9999 TS FEW036/// BKN100/// BKN130/// //////CB 27/19 Q1009 BECMG NSW
1:00 pm
V
84 °F 6¼ mi+ - 070° 070° 10 kt METAR LFMK 231100Z AUTO 07010KT 030V110 9999 ///CB 29/20 Q1009 NOSIG
12:30 pm
V
82 °F 6¼ mi+ - 070° 070° 15 kt METAR LFMK 231030Z AUTO 07015KT 9999 FEW029 28/19 Q1009 BECMG SCT040TCU
12:00 pm
V
81 °F 6¼ mi+ - 080° 080° 14 - 25 kt METAR LFMK 231000Z AUTO 08014G25KT 060V130 9999 FEW028 27/19 Q1009 BECMG SCT040TCU
11:30 am
M
79 °F 6¼ mi+ 2.500 ft 080° 080° 14 kt METAR LFMK 230930Z AUTO 08014KT 040V120 9999 BKN025 26/20 Q1009 BECMG SCT040TCU
11:00 am
V
79 °F 6¼ mi+ - 070° 070° 12 kt METAR LFMK 230900Z AUTO 07012KT CAVOK 26/20 Q1009 TEMPO 4000 SHRA SCT050CB
10:30 am
V
77 °F 6¼ mi+ - 080° 080° 11 kt METAR LFMK 230830Z AUTO 08011KT 9999 FEW029 25/19 Q1010 TEMPO 4000 SHRA SCT050CB
10:00 am
V
75 °F 6¼ mi+ - 080° 080° 4 kt METAR LFMK 230800Z AUTO 08004KT 020V160 CAVOK 24/18 Q1010 BECMG SCT035TCU
9:30 am
V
73 °F 6¼ mi+ - Var Var 2 kt METAR LFMK 230730Z AUTO VRB02KT CAVOK 23/17 Q1010 BECMG SCT035TCU
9:00 am
M
72 °F 6¼ mi+ 2.200 ft Var 000° 0 kt METAR LFMK 230700Z AUTO 00000KT 9999 BKN022 22/18 Q1010 BECMG 09010KT SCT035TCU
8:30 am
V
72 °F 6¼ mi+ - Var 000° 0 kt METAR LFMK 230630Z AUTO 00000KT CAVOK 22/17 Q1010 BECMG 09010KT SCT035TCU
8:00 am
M
66 °F 6¼ mi+ 2.500 ft Var Var 2 kt METAR LFMK 230600Z AUTO VRB02KT 9999 BKN025 19/17 Q1010 TEMPO BKN008
7:30 am
M
64 °F 6¼ mi+ 2.600 ft Var Var 2 kt METAR LFMK 230530Z AUTO VRB02KT 9999 BKN026 BKN240 18/17 Q1010 TEMPO BKN008
7:00 am
V
63 °F 6¼ mi+ - Var Var 2 kt METAR LFMK 230500Z AUTO VRB02KT 9999 SCT028 17/17 Q1010 TEMPO BKN008
6:30 am
V
63 °F 6¼ mi+ - Var Var 2 kt METAR LFMK 230430Z AUTO VRB02KT 9999 SCT029 17/17 Q1010 TEMPO BKN008
6:00 am
V
63 °F 6¼ mi+ - Var Var 2 kt METAR LFMK 230400Z AUTO VRB02KT 9999 FEW034 17/16 Q1010 TEMPO BKN008
5:30 am
V
63 °F 6¼ mi+ - Var Var 2 kt METAR LFMK 230330Z AUTO VRB02KT CAVOK 17/16 Q1011 TEMPO BKN008
5:00 am
V
63 °F 6¼ mi+ - Var Var 2 kt METAR LFMK 230300Z AUTO VRB02KT CAVOK 17/16 Q1011 TEMPO BKN008
4:30 am
V
63 °F 6¼ mi+ - Var Var 3 kt METAR LFMK 230230Z AUTO VRB03KT CAVOK 17/17 Q1011
4:00 am
V
63 °F 6¼ mi+ - Var Var 2 kt METAR LFMK 230200Z AUTO VRB02KT CAVOK 17/16 Q1011
3:30 am
V
63 °F 6¼ mi+ - Var Var 3 kt METAR LFMK 230130Z AUTO VRB03KT CAVOK 17/16 Q1011
3:00 am
V
64 °F 6¼ mi+ - Var Var 3 kt METAR LFMK 230100Z AUTO VRB03KT CAVOK 18/16 Q1011
2:30 am
V
66 °F 6¼ mi+ - 230° 230° 4 kt METAR LFMK 230030Z AUTO 23004KT 190V260 CAVOK 19/16 Q1012
2:00 am
V
68 °F 6¼ mi+ - 270° 270° 5 kt METAR LFMK 230000Z AUTO 27005KT 240V300 9999 //////CB 20/16 Q1011
1:30 am
V
68 °F 6¼ mi+ - 240° 240° 3 kt METAR LFMK 222330Z AUTO 24003KT 180V290 9999 //////CB 20/18 Q1012
1:00 am
V
72 °F 6¼ mi+ 7.200 ft 250° 250° 5 kt METAR LFMK 222300Z AUTO 25005KT 9999 -RA SCT011/// SCT029/// BKN072/// ///CB 22/20 Q1011
12:30 am
M
72 °F 3¾ mi 1.100 ft 260° 260° 3 kt METAR LFMK 222230Z AUTO 26003KT 6000 BKN011/// OVC110/// ///CB 22/22 Q1011
12:00 am
M
73 °F 4⅜ mi 6.000 ft Var Var 1 kt METAR LFMK 222200Z AUTO VRB01KT 7000 SCT014/// SCT039/// BKN060/// ///CB 23/21 Q1011

22. Juni 2022

Uhrzeit Code Wetter Temp. Sichtweite Wolkendecke Wind METAR/SPECI
11:30 pm
M
73 °F 4⅜ mi 1.100 ft 080° 080° 4 kt METAR LFMK 222130Z AUTO 08004KT 050V150 7000 RA VCTS BKN011/// BKN025/// BKN056/// //////CB 23/21 Q1011
11:00 pm
V
75 °F 6¼ mi+ 4.600 ft 070° 070° 6 kt METAR LFMK 222100Z AUTO 07006KT 040V100 9999 FEW038/// BKN046/// BKN056/// ///CB 24/21 Q1011
10:30 pm
V
75 °F 6¼ mi+ - 100° 100° 7 kt METAR LFMK 222030Z AUTO 10007KT 060V160 9999 FEW044/// ///CB 24/21 Q1010
10:00 pm
V
75 °F 6¼ mi+ 10.000 ft 080° 080° 9 kt METAR LFMK 222000Z AUTO 08009KT 9999 FEW060 BKN100 24/21 Q1010
9:30 pm
V
77 °F 6¼ mi+ - 070° 070° 9 kt METAR LFMK 221930Z AUTO 07009KT 9999 FEW040 SCT046 25/21 Q1009
9:00 pm
V
79 °F 6¼ mi+ - 350° 350° 6 kt METAR LFMK 221900Z AUTO 35006KT 320V020 9999 ///CB 26/20 Q1009
8:30 pm
V
82 °F 6¼ mi+ - 030° 030° 5 kt METAR LFMK 221830Z AUTO 03005KT 350V080 9999 ///CB 28/20 Q1008 TEMPO 28020G30KT 4000 TSRA
7:30 pm
V
82 °F 6¼ mi+ - 060° 060° 10 kt METAR LFMK 221730Z AUTO 06010KT 9999 ///CB 28/18 Q1008 TEMPO 28020G30KT 4000 TSRA
7:00 pm
V
86 °F 6¼ mi+ 9.000 ft 070° 070° 8 kt METAR LFMK 221700Z AUTO 07008KT 040V110 9999 FEW047 BKN090 30/18 Q1008 TEMPO SHRA SCT050TCU
Ältere Daten

Laden Sie unsere App herunter

Einfacher Zugriff auf das gesamte Flugwetter auf Ihrem Mobiltelefon und Tablet.
Mit vielen Funktionen, die auf der Website nicht verfügbar sind, wie Offline-Unterstützung und eine persönliche Flughafenliste.

Wir und Dritte verfolgen dein Internetverhalten auf unserer Website mit Cookies. Wenn du fortfährst, gehen wir davon aus, dass du mit unserer Cookie-Richtlinie einverstanden bist. Mehr erfahren